Time;durP1;ratioP1;P1;durP2;ratioP2;P2;SDS_P1;SDS_P2;PMS_P1;PMS_P2;Temp;Humidity;BMP_temperature;BMP_pressure;BME280_temperature;BME280_humidity;BME280_pressure;Samples;Min_cycle;Max_cycle;Signal;HPM_P1;HPM_P2
2023/02/03 00:00:44;;;;;;;4.23;2.23;;;4.80;98.50;;;;;;5003748;28;20262;-86
2023/02/03 00:03:11;;;;;;;3.97;2.00;;;4.80;98.40;;;;;;5004669;28;20694;-85
2023/02/03 00:05:39;;;;;;;4.00;2.27;;;4.90;98.50;;;;;;5006183;28;20207;-86
2023/02/03 00:08:07;;;;;;;5.47;1.97;;;4.90;98.20;;;;;;5013576;28;20226;-87
2023/02/03 00:10:36;;;;;;;3.40;2.20;;;4.90;97.70;;;;;;5018572;28;20206;-85
2023/02/03 00:13:05;;;;;;;5.37;2.13;;;4.90;97.90;;;;;;5004512;28;20257;-86
2023/02/03 00:15:31;;;;;;;3.67;2.13;;;4.90;98.10;;;;;;5005677;28;20580;-87
2023/02/03 00:17:58;;;;;;;6.03;2.20;;;4.80;98.30;;;;;;5013822;28;20195;-86
2023/02/03 00:20:25;;;;;;;3.60;2.30;;;4.90;98.00;;;;;;5012518;28;20686;-86
2023/02/03 00:22:52;;;;;;;5.20;1.93;;;4.90;97.70;;;;;;5016078;28;20237;-86
2023/02/03 00:25:20;;;;;;;2.87;1.80;;;5.00;97.60;;;;;;5004593;28;20219;-85
2023/02/03 00:27:47;;;;;;;3.63;2.07;;;5.00;97.60;;;;;;5003371;28;20269;-87
2023/02/03 00:30:16;;;;;;;3.43;1.77;;;5.00;97.50;;;;;;5003170;28;20211;-86
2023/02/03 00:32:42;;;;;;;3.80;2.10;;;5.10;97.00;;;;;;5010270;28;20273;-86
2023/02/03 00:35:10;;;;;;;6.50;2.00;;;5.00;97.00;;;;;;5012309;28;20203;-85
2023/02/03 00:37:36;;;;;;;3.77;2.00;;;5.10;97.10;;;;;;5009646;28;20203;-86
2023/02/03 00:40:04;;;;;;;4.53;1.90;;;5.10;96.80;;;;;;5012349;28;20574;-87
2023/02/03 00:42:30;;;;;;;2.67;1.80;;;5.00;96.80;;;;;;5008648;28;20211;-86
2023/02/03 00:44:58;;;;;;;2.77;1.80;;;5.00;96.80;;;;;;5008494;28;20215;-86
2023/02/03 00:47:26;;;;;;;3.50;1.80;;;5.10;96.70;;;;;;5007537;28;20207;-87
2023/02/03 00:49:53;;;;;;;5.20;1.93;;;5.10;96.90;;;;;;5007140;28;20599;-86
2023/02/03 00:52:20;;;;;;;2.83;1.73;;;5.00;96.60;;;;;;5010994;28;20231;-86
2023/02/03 00:54:47;;;;;;;4.33;2.13;;;5.10;96.70;;;;;;5006236;28;20205;-87
2023/02/03 00:57:13;;;;;;;2.77;1.67;;;5.10;96.70;;;;;;5008409;28;20205;-86
2023/02/03 00:59:40;;;;;;;5.47;1.90;;;5.00;96.70;;;;;;5008686;28;20208;-85
2023/02/03 01:02:07;;;;;;;2.27;1.60;;;5.10;96.50;;;;;;5003486;28;20216;-87
2023/02/03 01:04:35;;;;;;;1.80;1.50;;;5.10;96.20;;;;;;5005613;28;20204;-85
2023/02/03 01:07:02;;;;;;;3.70;1.97;;;5.10;96.00;;;;;;5003010;28;20222;-87
2023/02/03 01:09:33;;;;;;;4.43;1.90;;;5.20;96.00;;;;;;5005618;28;20199;-86
2023/02/03 01:11:59;;;;;;;3.77;1.60;;;5.20;96.20;;;;;;5009051;28;20223;-86
2023/02/03 01:14:26;;;;;;;4.93;2.13;;;5.20;96.00;;;;;;5009445;28;20207;-86
2023/02/03 01:16:53;;;;;;;4.03;1.90;;;5.10;96.00;;;;;;5005029;28;20559;-86
2023/02/03 01:19:20;;;;;;;6.13;1.80;;;5.10;95.70;;;;;;5007688;28;20214;-86
2023/02/03 01:21:48;;;;;;;4.37;2.17;;;5.10;95.90;;;;;;5009851;28;20227;-86
2023/02/03 01:24:15;;;;;;;3.87;1.63;;;5.10;96.00;;;;;;5007819;28;20234;-86
2023/02/03 01:26:43;;;;;;;2.50;1.70;;;5.20;95.80;;;;;;5008363;28;20233;-85
2023/02/03 01:29:09;;;;;;;2.47;1.70;;;5.20;95.90;;;;;;5006710;28;20211;-86
2023/02/03 01:31:38;;;;;;;5.03;1.63;;;5.10;95.80;;;;;;5007994;28;20226;-85
2023/02/03 01:34:06;;;;;;;3.67;1.70;;;5.20;95.50;;;;;;5006339;28;20222;-86
2023/02/03 01:36:35;;;;;;;3.87;1.90;;;5.20;95.50;;;;;;5011647;28;20233;-86
2023/02/03 01:39:04;;;;;;;4.77;2.00;;;5.10;95.40;;;;;;5005579;28;20213;-86
2023/02/03 01:41:33;;;;;;;4.43;1.80;;;5.20;95.50;;;;;;5003219;28;20218;-86
2023/02/03 01:44:01;;;;;;;2.50;1.60;;;5.20;95.10;;;;;;5006178;28;20196;-86
2023/02/03 01:46:31;;;;;;;4.50;1.90;;;5.20;95.20;;;;;;5005917;28;20211;-86
2023/02/03 01:49:05;;;;;;;4.77;1.70;;;5.10;95.50;;;;;;5000603;28;20679;-86
2023/02/03 01:51:32;;;;;;;4.67;1.90;;;5.20;95.40;;;;;;5004786;28;20222;-86
2023/02/03 01:54:00;;;;;;;3.37;1.73;;;5.10;95.60;;;;;;5008518;28;20211;-86
2023/02/03 01:56:32;;;;;;;4.67;1.80;;;5.20;95.60;;;;;;5002918;28;20198;-86
2023/02/03 01:58:59;;;;;;;4.23;1.70;;;5.10;95.40;;;;;;5005804;28;20216;-86
2023/02/03 02:01:28;;;;;;;5.03;1.87;;;5.10;95.20;;;;;;5004980;28;20212;-87
2023/02/03 02:03:57;;;;;;;3.97;1.60;;;5.20;95.10;;;;;;5004285;28;20199;-86
2023/02/03 02:06:24;;;;;;;2.97;2.10;;;5.20;95.10;;;;;;5004192;28;20322;-87
2023/02/03 02:08:53;;;;;;;2.67;2.10;;;5.20;95.10;;;;;;5009920;28;20203;-86
2023/02/03 02:11:20;;;;;;;4.03;1.80;;;5.20;95.10;;;;;;5003193;28;20227;-86
2023/02/03 02:13:52;;;;;;;3.33;1.73;;;5.20;95.10;;;;;;5009789;28;20367;-86
2023/02/03 02:16:27;;;;;;;2.03;1.60;;;5.30;95.10;;;;;;5007427;28;20215;-86
2023/02/03 02:19:16;;;;;;;3.40;1.50;;;5.30;95.10;;;;;;5010038;28;20203;-86
2023/02/03 02:22:04;;;;;;;4.50;1.80;;;5.20;95.00;;;;;;5003399;28;20240;-89
2023/02/03 02:25:06;;;;;;;2.83;1.77;;;5.30;94.70;;;;;;5001564;28;20216;-86
2023/02/03 02:28:04;;;;;;;1.93;1.70;;;5.30;94.80;;;;;;5006188;28;20195;-86
2023/02/03 02:30:49;;;;;;;4.70;1.70;;;5.30;94.70;;;;;;4994527;28;20642;-87
2023/02/03 02:33:28;;;;;;;2.83;1.37;;;5.30;95.10;;;;;;5009181;28;20234;-86
2023/02/03 02:35:59;;;;;;;4.27;1.80;;;5.30;94.50;;;;;;5005864;28;20278;-86
2023/02/03 02:38:38;;;;;;;4.33;1.80;;;5.30;94.70;;;;;;5010217;28;20210;-86
2023/02/03 02:41:10;;;;;;;3.57;1.93;;;5.40;94.50;;;;;;5002865;28;20210;-87
2023/02/03 02:43:42;;;;;;;3.43;1.50;;;5.40;94.60;;;;;;5002493;28;20562;-86
2023/02/03 02:46:13;;;;;;;2.63;1.60;;;5.40;94.50;;;;;;5010278;28;20203;-86
2023/02/03 02:48:46;;;;;;;3.67;1.70;;;5.30;94.70;;;;;;4984728;28;20285;-86
2023/02/03 02:51:15;;;;;;;3.53;1.40;;;5.30;94.50;;;;;;4998261;28;20204;-87
2023/02/03 02:53:46;;;;;;;4.00;1.70;;;5.30;94.40;;;;;;5006280;28;20215;-86
2023/02/03 02:56:16;;;;;;;3.70;1.63;;;5.40;94.40;;;;;;5009626;28;20203;-87
2023/02/03 02:58:47;;;;;;;2.70;1.43;;;5.40;94.00;;;;;;5006809;28;20731;-86
2023/02/03 03:01:14;;;;;;;7.17;1.87;;;5.30;94.00;;;;;;4990042;28;20199;-86
2023/02/03 03:03:44;;;;;;;4.23;1.50;;;5.30;94.20;;;;;;5004354;28;20250;-86
2023/02/03 03:06:15;;;;;;;2.90;2.10;;;5.30;94.30;;;;;;5002419;28;20215;-86
2023/02/03 03:08:47;;;;;;;2.17;1.50;;;5.30;94.30;;;;;;4999210;28;20203;-86
2023/02/03 03:11:17;;;;;;;3.17;1.20;;;5.30;94.50;;;;;;5004319;28;20281;-86
2023/02/03 03:13:49;;;;;;;2.97;1.53;;;5.30;94.60;;;;;;5003460;28;20203;-85
2023/02/03 03:16:18;;;;;;;3.00;1.70;;;5.30;94.50;;;;;;5005341;28;20221;-86
2023/02/03 03:18:49;;;;;;;3.27;1.30;;;5.30;94.20;;;;;;5005425;28;20207;-85
2023/02/03 03:21:22;;;;;;;2.50;1.57;;;5.30;94.40;;;;;;5010008;28;20242;-87
2023/02/03 03:23:54;;;;;;;3.43;1.47;;;5.30;94.80;;;;;;5008148;28;20251;-86
2023/02/03 03:26:27;;;;;;;4.43;1.77;;;5.30;94.20;;;;;;5006514;28;20217;-87
2023/02/03 03:29:00;;;;;;;2.33;1.47;;;5.30;94.20;;;;;;5009127;28;20294;-86
2023/02/03 03:31:27;;;;;;;3.67;1.63;;;5.40;93.80;;;;;;5004171;28;20218;-88
2023/02/03 03:33:56;;;;;;;2.27;1.60;;;5.40;93.70;;;;;;4988288;28;21582;-86
2023/02/03 03:36:28;;;;;;;3.43;1.40;;;5.40;93.90;;;;;;5008690;28;20212;-86
2023/02/03 03:39:00;;;;;;;2.37;1.60;;;5.40;93.70;;;;;;5015968;28;20222;-85
2023/02/03 03:41:35;;;;;;;2.27;1.70;;;5.40;93.40;;;;;;5004800;28;20210;-86
2023/02/03 03:44:05;;;;;;;2.17;1.43;;;5.40;93.10;;;;;;4999743;28;20215;-87
2023/02/03 03:46:37;;;;;;;2.47;1.50;;;5.40;93.10;;;;;;5004182;28;20213;-86
2023/02/03 03:49:08;;;;;;;3.23;1.47;;;5.40;93.10;;;;;;5001199;28;20211;-86
2023/02/03 03:51:43;;;;;;;3.63;1.60;;;5.40;93.40;;;;;;5003687;28;20215;-86
2023/02/03 03:54:13;;;;;;;2.60;1.40;;;5.30;93.10;;;;;;5005906;28;20211;-86
2023/02/03 03:56:46;;;;;;;1.43;1.33;;;5.40;93.40;;;;;;5005859;28;20207;-87
2023/02/03 03:59:17;;;;;;;4.03;1.50;;;5.30;93.20;;;;;;5007600;28;20210;-85
2023/02/03 04:01:45;;;;;;;2.90;1.30;;;5.30;93.10;;;;;;5004587;28;20207;-85
2023/02/03 04:04:15;;;;;;;2.47;1.37;;;5.40;93.20;;;;;;5003683;28;20827;-86
2023/02/03 04:06:42;;;;;;;4.33;1.53;;;5.40;93.10;;;;;;5007337;28;20678;-87
2023/02/03 04:09:09;;;;;;;2.43;1.30;;;5.40;93.00;;;;;;5005057;28;20326;-86
2023/02/03 04:14:20;;;;;;;4.70;1.80;;;5.40;93.10;;;;;;5004136;28;20218;-87
2023/02/03 04:16:47;;;;;;;2.80;1.23;;;5.40;93.00;;;;;;5006314;28;20203;-86
2023/02/03 04:19:15;;;;;;;1.93;1.17;;;5.40;93.30;;;;;;5008403;28;20214;-86
2023/02/03 04:21:42;;;;;;;2.50;1.20;;;5.30;93.30;;;;;;5001246;28;20235;-86
2023/02/03 04:24:10;;;;;;;2.60;1.70;;;5.40;92.70;;;;;;5003791;28;20601;-87
2023/02/03 04:26:37;;;;;;;4.53;1.40;;;5.40;92.80;;;;;;5004079;28;20230;-86
2023/02/03 04:29:04;;;;;;;2.40;1.40;;;5.40;92.50;;;;;;5001446;28;20211;-86
2023/02/03 04:31:31;;;;;;;3.70;1.60;;;5.40;92.50;;;;;;5008587;28;20196;-86
2023/02/03 04:33:58;;;;;;;2.73;1.27;;;5.30;92.90;;;;;;5008825;28;20234;-86
2023/02/03 04:36:26;;;;;;;2.50;1.30;;;5.40;92.60;;;;;;5001630;28;20203;-86
2023/02/03 04:38:53;;;;;;;4.17;1.70;;;5.40;92.50;;;;;;5002562;28;20668;-86
2023/02/03 04:41:20;;;;;;;4.33;1.43;;;5.30;92.40;;;;;;5000697;28;20196;-86
2023/02/03 04:43:47;;;;;;;3.97;1.30;;;5.30;92.40;;;;;;5006377;28;20558;-86
2023/02/03 04:46:14;;;;;;;3.63;1.57;;;5.30;92.10;;;;;;5003161;28;20215;-86
2023/02/03 04:48:40;;;;;;;2.60;1.70;;;5.30;92.40;;;;;;5000012;28;20200;-86
2023/02/03 04:51:09;;;;;;;3.93;1.73;;;5.30;92.20;;;;;;5005578;28;20218;-86
2023/02/03 04:53:38;;;;;;;2.70;1.40;;;5.30;92.40;;;;;;5002294;28;20227;-85
2023/02/03 04:56:05;;;;;;;4.53;1.57;;;5.30;92.30;;;;;;4987659;28;20264;-86
2023/02/03 04:58:32;;;;;;;2.27;1.47;;;5.30;92.30;;;;;;5005988;28;20215;-85
2023/02/03 05:01:06;;;;;;;2.47;1.60;;;5.20;92.40;;;;;;5006867;28;20199;-86
2023/02/03 05:03:33;;;;;;;3.03;1.50;;;5.30;92.00;;;;;;5005777;28;20222;-86
2023/02/03 05:06:02;;;;;;;3.80;1.50;;;5.20;92.30;;;;;;5007387;28;20218;-85
2023/02/03 05:08:29;;;;;;;2.33;1.50;;;5.20;92.40;;;;;;5006616;28;20204;-86
2023/02/03 05:10:57;;;;;;;3.37;1.70;;;5.20;92.40;;;;;;5007816;28;20667;-87
2023/02/03 05:13:24;;;;;;;3.47;1.87;;;5.20;92.40;;;;;;4987982;28;20231;-86
2023/02/03 05:15:51;;;;;;;3.63;1.30;;;5.20;92.30;;;;;;5011220;28;20207;-85
2023/02/03 05:18:18;;;;;;;1.80;1.20;;;5.30;92.20;;;;;;5007486;28;20214;-85
2023/02/03 05:20:45;;;;;;;3.47;1.43;;;5.30;92.40;;;;;;5011306;28;20213;-86
2023/02/03 05:23:12;;;;;;;3.03;1.53;;;5.20;92.20;;;;;;4991881;28;22562;-85
2023/02/03 05:25:38;;;;;;;4.40;1.63;;;5.20;92.40;;;;;;4990920;28;20211;-86
2023/02/03 05:28:06;;;;;;;4.23;1.53;;;5.20;92.40;;;;;;4993390;28;20684;-86
2023/02/03 05:30:34;;;;;;;3.00;1.40;;;5.20;92.00;;;;;;4990650;28;20200;-86
2023/02/03 05:33:00;;;;;;;4.37;1.67;;;5.20;91.90;;;;;;4987167;28;20666;-86
2023/02/03 05:35:27;;;;;;;5.17;1.90;;;5.20;92.30;;;;;;4983895;28;20203;-85
2023/02/03 05:37:54;;;;;;;1.60;1.37;;;5.20;92.40;;;;;;4988801;28;20575;-86
2023/02/03 05:43:07;;;;;;;3.50;1.50;;;5.20;92.40;;;;;;4977944;28;20222;-86
2023/02/03 05:45:34;;;;;;;2.60;1.73;;;5.20;92.40;;;;;;4983603;28;20215;-86
2023/02/03 05:48:02;;;;;;;1.80;1.47;;;5.20;92.40;;;;;;4986828;28;20669;-86
2023/02/03 05:50:32;;;;;;;3.17;1.53;;;5.20;92.40;;;;;;4980515;28;20819;-89
2023/02/03 05:52:59;;;;;;;3.73;1.73;;;5.20;92.20;;;;;;4987467;28;20703;-87
2023/02/03 05:55:28;;;;;;;2.60;2.03;;;5.20;92.40;;;;;;4988820;28;20211;-87
2023/02/03 05:57:55;;;;;;;2.57;1.33;;;5.20;92.50;;;;;;4984709;28;20263;-86
2023/02/03 06:00:24;;;;;;;2.00;1.57;;;5.20;92.50;;;;;;4980696;28;20656;-89
2023/02/03 06:02:52;;;;;;;2.73;1.37;;;5.10;92.20;;;;;;4984453;28;21133;-88
2023/02/03 06:05:19;;;;;;;3.80;1.70;;;5.20;92.50;;;;;;4984694;28;20259;-85
2023/02/03 06:07:46;;;;;;;2.13;1.40;;;5.20;92.40;;;;;;4986794;28;20207;-85
2023/02/03 06:10:13;;;;;;;4.20;1.70;;;5.20;92.50;;;;;;4981216;28;20216;-85
2023/02/03 06:12:40;;;;;;;1.67;1.30;;;5.10;92.70;;;;;;4981530;28;20234;-88
2023/02/03 06:15:08;;;;;;;3.40;1.40;;;5.10;92.60;;;;;;4974126;28;20216;-84
2023/02/03 06:17:37;;;;;;;5.07;1.70;;;5.10;92.70;;;;;;4982339;28;20204;-85
2023/02/03 06:20:04;;;;;;;2.13;1.60;;;5.20;92.40;;;;;;4983168;28;20208;-80
2023/02/03 06:22:32;;;;;;;3.10;2.20;;;5.20;92.40;;;;;;4995961;28;20242;-83
2023/02/03 06:24:59;;;;;;;3.67;1.80;;;5.10;92.20;;;;;;5013082;28;20703;-81
2023/02/03 06:27:26;;;;;;;3.30;1.50;;;5.10;92.40;;;;;;5006999;28;20214;-80
2023/02/03 06:29:52;;;;;;;4.53;1.80;;;5.10;92.30;;;;;;5010916;28;20777;-80
2023/02/03 06:32:19;;;;;;;3.33;1.53;;;5.20;92.00;;;;;;5006874;28;20211;-84
2023/02/03 06:34:48;;;;;;;3.17;1.30;;;5.20;92.20;;;;;;5009122;28;20667;-83
2023/02/03 06:37:15;;;;;;;3.30;1.70;;;5.10;92.40;;;;;;5011727;28;20216;-85
2023/02/03 06:39:42;;;;;;;2.73;1.47;;;5.10;92.30;;;;;;5008261;28;20695;-87
2023/02/03 06:42:09;;;;;;;3.90;1.60;;;5.20;92.10;;;;;;5008099;28;20686;-84
2023/02/03 06:44:36;;;;;;;5.00;1.60;;;5.20;92.40;;;;;;5001964;28;20208;-83
2023/02/03 06:47:02;;;;;;;3.37;1.50;;;5.10;92.40;;;;;;5007014;28;20208;-83
2023/02/03 06:49:29;;;;;;;5.13;1.57;;;5.20;92.40;;;;;;5006836;28;20207;-84
2023/02/03 06:51:57;;;;;;;1.77;1.37;;;5.20;92.40;;;;;;5008426;28;20214;-83
2023/02/03 06:54:24;;;;;;;2.10;1.40;;;5.20;92.30;;;;;;5006103;28;20237;-83
2023/02/03 06:56:51;;;;;;;3.70;1.67;;;5.20;92.50;;;;;;5006275;28;20215;-84
2023/02/03 06:59:18;;;;;;;1.73;1.20;;;5.10;92.40;;;;;;5008440;28;20681;-83
2023/02/03 07:01:45;;;;;;;2.90;1.40;;;5.20;92.40;;;;;;5007697;28;20218;-83
2023/02/03 07:04:12;;;;;;;2.60;1.30;;;5.20;92.30;;;;;;5009399;28;20585;-84
2023/02/03 07:06:39;;;;;;;2.30;1.53;;;5.20;92.40;;;;;;5008440;28;20203;-83
2023/02/03 07:09:07;;;;;;;2.33;1.30;;;5.20;92.60;;;;;;5005670;28;20207;-83
2023/02/03 07:11:34;;;;;;;3.90;1.40;;;5.20;92.40;;;;;;5006132;28;20710;-83
2023/02/03 07:14:01;;;;;;;1.50;1.40;;;5.20;92.40;;;;;;5005933;28;20219;-83
2023/02/03 07:16:27;;;;;;;2.40;1.53;;;5.20;92.70;;;;;;5004634;28;20242;-83
2023/02/03 07:18:54;;;;;;;2.90;1.50;;;5.20;92.40;;;;;;5004323;28;20207;-83
2023/02/03 07:21:21;;;;;;;2.53;1.40;;;5.20;92.40;;;;;;4998422;28;20242;-83
2023/02/03 07:23:49;;;;;;;2.37;1.17;;;5.30;91.90;;;;;;4985072;28;20708;-83
2023/02/03 07:26:17;;;;;;;3.10;1.20;;;5.30;91.60;;;;;;4984353;28;20563;-83
2023/02/03 07:28:44;;;;;;;5.07;1.43;;;5.30;91.60;;;;;;4981867;28;20216;-83
2023/02/03 07:31:11;;;;;;;3.33;1.50;;;5.40;91.00;;;;;;4983339;28;20212;-85
2023/02/03 07:33:38;;;;;;;2.90;1.30;;;5.40;91.50;;;;;;4978784;28;20232;-84
2023/02/03 07:36:07;;;;;;;3.80;1.40;;;5.40;90.70;;;;;;4985908;28;20297;-84
2023/02/03 07:38:34;;;;;;;2.57;1.30;;;5.40;90.90;;;;;;4983535;28;20747;-84
2023/02/03 07:41:01;;;;;;;3.53;1.50;;;5.40;90.90;;;;;;4989722;28;20204;-86
2023/02/03 07:43:29;;;;;;;3.27;1.40;;;5.50;90.70;;;;;;4982737;28;20215;-86
2023/02/03 07:45:56;;;;;;;2.27;1.40;;;5.50;90.50;;;;;;4994259;28;20207;-91
2023/02/03 07:48:24;;;;;;;2.80;1.30;;;5.50;90.40;;;;;;4981621;28;20215;-85
2023/02/03 07:50:51;;;;;;;1.70;1.37;;;5.50;90.40;;;;;;4981860;28;20200;-84
2023/02/03 07:53:18;;;;;;;2.87;1.30;;;5.60;89.40;;;;;;4985888;28;20243;-86
2023/02/03 07:55:45;;;;;;;3.00;1.40;;;5.70;89.40;;;;;;4979049;28;20207;-85
2023/02/03 07:58:12;;;;;;;1.37;1.20;;;5.70;89.80;;;;;;4988419;28;20215;-85
2023/02/03 08:00:41;;;;;;;1.30;1.20;;;5.70;89.40;;;;;;4988841;28;20275;-82
2023/02/03 08:03:07;;;;;;;3.67;1.20;;;5.80;89.50;;;;;;4980507;28;20211;-83
2023/02/03 08:05:34;;;;;;;2.00;1.30;;;5.80;88.50;;;;;;4981164;28;20204;-82
2023/02/03 08:08:01;;;;;;;3.23;1.20;;;5.80;88.10;;;;;;4969566;28;20212;-81
2023/02/03 08:10:28;;;;;;;2.50;1.50;;;5.90;88.20;;;;;;4985762;28;20215;-83
2023/02/03 08:12:55;;;;;;;3.20;1.43;;;6.00;87.70;;;;;;4982080;28;20208;-82
2023/02/03 08:15:22;;;;;;;3.47;1.23;;;6.00;86.80;;;;;;4987994;28;20579;-82
2023/02/03 08:17:51;;;;;;;1.40;1.30;;;6.00;87.80;;;;;;4981647;28;20203;-84
2023/02/03 08:20:18;;;;;;;2.97;1.33;;;6.10;85.90;;;;;;4985267;28;20645;-84
2023/02/03 08:22:45;;;;;;;2.90;1.33;;;6.10;86.20;;;;;;4981415;28;20281;-83
2023/02/03 08:25:13;;;;;;;4.37;1.20;;;6.10;85.40;;;;;;5003214;28;20226;-84
2023/02/03 08:27:40;;;;;;;1.57;1.40;;;6.20;83.40;;;;;;4999941;28;20208;-81
2023/02/03 08:30:11;;;;;;;4.23;1.20;;;6.20;82.80;;;;;;5009233;28;20204;-82
2023/02/03 08:32:39;;;;;;;6.23;1.53;;;6.20;83.70;;;;;;5008114;28;20579;-82
2023/02/03 08:35:08;;;;;;;1.27;1.00;;;6.20;84.00;;;;;;5007344;28;20231;-84
2023/02/03 08:37:35;;;;;;;2.23;1.23;;;6.30;84.60;;;;;;5004190;28;20206;-84
2023/02/03 08:40:02;;;;;;;4.10;1.10;;;6.30;82.90;;;;;;5004305;28;20212;-81
2023/02/03 08:42:29;;;;;;;1.90;1.30;;;6.30;81.30;;;;;;5008906;28;20222;-81
2023/02/03 08:44:56;;;;;;;1.90;1.23;;;6.30;80.90;;;;;;5005135;28;20218;-82
2023/02/03 08:47:22;;;;;;;1.87;1.40;;;6.30;81.60;;;;;;5008712;28;20211;-81
2023/02/03 08:49:49;;;;;;;2.17;1.30;;;6.30;81.60;;;;;;5007859;28;20208;-83
2023/02/03 08:52:17;;;;;;;2.37;1.53;;;6.30;81.10;;;;;;5002862;28;20683;-83
2023/02/03 08:54:44;;;;;;;3.03;1.30;;;6.30;82.20;;;;;;5011997;28;20231;-83
2023/02/03 08:57:11;;;;;;;2.00;1.53;;;6.30;82.10;;;;;;5003476;28;20216;-84
2023/02/03 08:59:40;;;;;;;2.37;1.13;;;6.40;81.40;;;;;;4998829;28;20562;-84
2023/02/03 09:02:09;;;;;;;4.90;1.50;;;6.40;80.30;;;;;;5005734;28;20215;-84
2023/02/03 09:04:36;;;;;;;5.73;1.47;;;6.50;80.40;;;;;;5002426;28;20243;-83
2023/02/03 09:07:03;;;;;;;3.23;1.53;;;6.40;79.80;;;;;;5009983;28;20222;-84
2023/02/03 09:09:32;;;;;;;1.80;1.20;;;6.50;80.10;;;;;;5012388;28;20215;-81
2023/02/03 09:12:01;;;;;;;2.10;1.23;;;6.50;78.70;;;;;;5009348;28;20218;-84
2023/02/03 09:14:28;;;;;;;3.20;1.30;;;6.50;78.60;;;;;;5010811;28;20235;-83
2023/02/03 09:16:55;;;;;;;3.37;1.53;;;6.50;78.60;;;;;;5005129;28;20213;-83
2023/02/03 09:19:22;;;;;;;3.20;1.47;;;6.40;78.50;;;;;;4990600;28;20219;-82
2023/02/03 09:21:49;;;;;;;2.53;1.20;;;6.50;78.10;;;;;;5009801;28;20234;-88
2023/02/03 09:24:17;;;;;;;4.40;1.50;;;6.50;78.40;;;;;;5004993;28;20409;-86
2023/02/03 09:26:46;;;;;;;1.40;1.10;;;6.50;77.60;;;;;;5008698;28;20215;-91
2023/02/03 09:29:13;;;;;;;1.90;1.40;;;6.60;77.20;;;;;;5003081;28;20310;-88
2023/02/03 09:31:40;;;;;;;3.70;1.30;;;6.60;77.10;;;;;;5006232;28;20207;-90
2023/02/03 09:34:07;;;;;;;5.40;1.57;;;6.70;77.50;;;;;;5007549;28;20237;-90
2023/02/03 09:36:34;;;;;;;1.57;1.27;;;6.70;76.60;;;;;;5008154;28;20682;-92
2023/02/03 09:39:01;;;;;;;2.13;1.40;;;6.80;76.20;;;;;;5008215;28;20216;-86
2023/02/03 09:41:59;;;;;;;2.67;1.87;;;6.80;75.50;;;;;;5004131;28;20204;-87
2023/02/03 09:44:33;;;;;;;1.70;1.30;;;6.80;75.10;;;;;;5004355;28;20203;-84
2023/02/03 09:47:05;;;;;;;3.88;1.52;;;6.90;75.00;;;;;;5002447;28;20686;-85
2023/02/03 09:49:38;;;;;;;1.37;1.27;;;7.00;74.00;;;;;;5005779;28;20584;-84
2023/02/03 09:52:11;;;;;;;2.60;1.20;;;7.00;71.80;;;;;;5002884;28;20234;-88
2023/02/03 09:54:51;;;;;;;2.37;1.13;;;7.00;72.30;;;;;;5008795;28;20689;-91
2023/02/03 10:00:16;;;;;;;1.83;1.10;;;7.10;71.90;;;;;;5015314;28;20211;-92
2023/02/03 10:06:03;;;;;;;2.17;1.10;;;7.20;72.10;;;;;;5005885;28;20202;-91
2023/02/03 10:08:43;;;;;;;2.03;1.27;;;7.20;70.60;;;;;;5012578;28;20211;-92
2023/02/03 10:14:14;;;;;;;1.77;0.98;;;7.40;66.40;;;;;;5018533;28;20252;-93
2023/02/03 10:17:04;;;;;;;1.83;0.93;;;7.20;66.30;;;;;;5011487;28;20218;-91
2023/02/03 10:19:40;;;;;;;3.53;1.30;;;7.30;68.40;;;;;;5007566;28;20371;-91
2023/02/03 10:22:13;;;;;;;6.80;1.20;;;7.30;72.10;;;;;;5008047;28;20242;-89
2023/02/03 10:24:44;;;;;;;2.58;1.30;;;7.20;67.00;;;;;;5007785;28;20230;-89
2023/02/03 10:27:16;;;;;;;1.45;1.20;;;7.20;69.90;;;;;;5005565;28;20216;-90
2023/02/03 10:29:47;;;;;;;1.52;1.00;;;7.10;66.80;;;;;;5014537;28;20670;-90
2023/02/03 10:32:15;;;;;;;1.90;1.33;;;7.10;66.80;;;;;;5005085;28;20211;-90
2023/02/03 10:34:47;;;;;;;2.33;1.10;;;7.20;70.20;;;;;;5008163;28;20226;-91
2023/02/03 10:37:24;;;;;;;3.67;1.30;;;7.20;69.60;;;;;;5008532;28;20210;-91
2023/02/03 10:39:52;;;;;;;4.20;1.30;;;7.30;69.50;;;;;;5007974;28;20290;-90
2023/02/03 10:42:21;;;;;;;2.90;1.25;;;7.30;65.50;;;;;;5006328;28;20214;-93
2023/02/03 10:44:56;;;;;;;3.17;1.10;;;7.40;66.40;;;;;;5007269;28;20207;-90
2023/02/03 10:47:33;;;;;;;6.07;1.50;;;7.30;65.00;;;;;;5011628;28;20215;-93
2023/02/03 10:50:03;;;;;;;3.45;1.40;;;7.40;66.00;;;;;;5004150;28;20218;-89
2023/02/03 10:52:33;;;;;;;3.75;1.40;;;7.40;64.60;;;;;;5012900;28;20210;-93
2023/02/03 10:55:06;;;;;;;4.15;1.45;;;7.40;63.40;;;;;;5014458;28;20215;-93
2023/02/03 11:03:36;;;;;;;1.50;1.33;;;7.60;61.50;;;;;;5006420;28;20215;-89
2023/02/03 11:06:08;;;;;;;2.63;1.35;;;7.50;60.40;;;;;;5010870;28;20210;-88
2023/02/03 11:08:37;;;;;;;1.77;1.20;;;7.40;60.60;;;;;;5012695;28;20211;-92
2023/02/03 11:11:06;;;;;;;3.50;1.85;;;7.40;63.60;;;;;;4983027;28;20216;-92
2023/02/03 11:24:06;;;;;;;1.40;1.10;;;7.60;59.20;;;;;;5016527;28;20712;-91
2023/02/03 11:26:39;;;;;;;6.55;1.40;;;7.60;57.90;;;;;;4997016;28;20207;-93
2023/02/03 11:29:27;;;;;;;1.25;0.98;;;7.60;61.40;;;;;;5018055;28;20198;-91
2023/02/03 11:35:55;;;;;;;1.45;1.10;;;7.90;56.40;;;;;;5015437;28;20591;-90
2023/02/03 11:38:41;;;;;;;4.38;1.33;;;7.90;53.70;;;;;;5006814;28;20211;-96
2023/02/03 11:43:57;;;;;;;1.20;1.05;;;8.00;54.70;;;;;;4952760;29;20209;-94
2023/02/03 11:46:24;;;;;;;1.77;1.30;;;7.90;51.90;;;;;;4949864;28;20728;-94
2023/02/03 11:49:34;;;;;;;1.42;1.30;;;7.90;54.70;;;;;;4947291;28;20235;-92
2023/02/03 11:52:16;;;;;;;3.35;1.25;;;8.00;55.00;;;;;;4942966;28;20220;-90
2023/02/03 11:54:53;;;;;;;1.98;1.00;;;8.10;50.80;;;;;;4958694;29;20277;-89
2023/02/03 11:57:59;;;;;;;3.40;1.30;;;8.00;51.60;;;;;;4954562;28;20573;-89
2023/02/03 12:00:46;;;;;;;1.95;1.10;;;8.10;50.40;;;;;;4966171;28;20201;-90
2023/02/03 12:03:43;;;;;;;1.15;1.00;;;8.20;49.00;;;;;;4954710;28;20200;-89
2023/02/03 12:06:24;;;;;;;1.55;1.13;;;8.20;47.80;;;;;;4938190;29;20210;-89
2023/02/03 12:09:11;;;;;;;1.38;1.10;;;8.10;47.60;;;;;;4972710;28;20208;-89
2023/02/03 12:11:53;;;;;;;1.63;1.30;;;8.00;49.70;;;;;;4960391;28;20205;-88
2023/02/03 12:21:46;;;;;;;1.30;0.93;;;7.90;50.20;;;;;;4982991;28;20209;-88
2023/02/03 12:27:33;;;;;;;1.90;1.02;;;7.80;49.60;;;;;;5020137;28;20222;-88
2023/02/03 12:30:06;;;;;;;2.20;1.10;;;7.80;49.90;;;;;;5011140;28;20213;-88
2023/02/03 12:32:48;;;;;;;1.25;1.10;;;7.90;50.10;;;;;;5010350;28;20195;-88
2023/02/03 12:35:20;;;;;;;1.10;1.00;;;7.90;49.90;;;;;;4996951;28;20716;-89
2023/02/03 12:37:52;;;;;;;2.72;1.17;;;7.80;48.80;;;;;;5010074;28;20203;-87
2023/02/03 12:40:28;;;;;;;2.33;1.10;;;7.70;49.70;;;;;;5026425;28;20206;-86
2023/02/03 12:43:00;;;;;;;3.90;1.20;;;7.70;49.50;;;;;;5002360;28;20282;-87
2023/02/03 12:45:32;;;;;;;1.42;1.17;;;7.80;50.70;;;;;;5013145;28;20219;-87
2023/02/03 12:48:02;;;;;;;3.47;1.27;;;7.70;50.10;;;;;;5011807;28;20211;-90
2023/02/03 12:50:35;;;;;;;1.63;1.13;;;7.80;50.30;;;;;;5016984;28;20203;-87
2023/02/03 12:53:06;;;;;;;2.28;1.30;;;7.80;49.70;;;;;;5007677;28;20733;-88
2023/02/03 12:55:38;;;;;;;1.92;1.10;;;7.90;49.70;;;;;;5014091;28;20226;-90
2023/02/03 12:58:07;;;;;;;3.10;1.00;;;7.90;49.30;;;;;;5004143;28;20744;-94
2023/02/03 13:00:51;;;;;;;5.60;1.30;;;7.80;49.50;;;;;;5009806;28;20207;-84
2023/02/03 13:03:28;;;;;;;1.73;0.90;;;7.80;49.20;;;;;;5015724;28;20536;-84
2023/02/03 13:09:15;;;;;;;1.83;1.00;;;7.70;49.50;;;;;;5015905;28;20243;-87
2023/02/03 13:11:48;;;;;;;1.47;1.10;;;7.70;50.40;;;;;;5016242;28;20290;-85
2023/02/03 13:14:20;;;;;;;1.83;0.90;;;7.70;50.00;;;;;;5014145;28;20199;-84
2023/02/03 13:16:53;;;;;;;1.97;0.90;;;7.60;51.10;;;;;;5014176;28;20215;-89
2023/02/03 13:19:25;;;;;;;2.07;1.17;;;7.60;52.60;;;;;;5012861;28;20200;-85
2023/02/03 13:21:53;;;;;;;2.60;1.10;;;7.60;51.80;;;;;;4995993;28;20230;-86
2023/02/03 13:24:30;;;;;;;1.95;1.38;;;7.60;52.40;;;;;;5011810;28;20301;-84
2023/02/03 13:27:22;;;;;;;1.87;1.00;;;7.50;52.60;;;;;;5013900;28;20563;-85
2023/02/03 13:30:24;;;;;;;2.00;1.13;;;7.40;54.40;;;;;;5012863;28;20652;-85
2023/02/03 13:33:22;;;;;;;1.33;1.10;;;7.40;54.50;;;;;;5007501;28;20209;-86
2023/02/03 13:36:21;;;;;;;2.60;1.10;;;7.30;55.40;;;;;;5013345;28;20702;-87
2023/02/03 13:39:18;;;;;;;1.63;1.23;;;7.30;55.80;;;;;;5010779;28;20208;-87
2023/02/03 13:41:49;;;;;;;3.43;1.30;;;7.40;56.40;;;;;;5004858;28;20211;-88
2023/02/03 13:44:25;;;;;;;3.83;1.10;;;7.30;56.50;;;;;;5019638;28;20204;-88
2023/02/03 13:46:53;;;;;;;1.17;1.00;;;7.40;58.40;;;;;;5006598;28;20237;-89
2023/02/03 13:49:27;;;;;;;1.80;0.97;;;7.40;57.60;;;;;;5014562;28;20563;-88
2023/02/03 13:51:54;;;;;;;2.73;1.53;;;7.40;57.70;;;;;;5024266;28;20206;-87
2023/02/03 13:54:28;;;;;;;7.50;5.87;;;7.30;57.40;;;;;;5028815;28;20767;-86
2023/02/03 13:56:58;;;;;;;3.38;1.70;;;7.40;58.30;;;;;;5013350;28;20655;-87
2023/02/03 13:59:57;;;;;;;3.72;2.38;;;7.50;58.00;;;;;;5022550;28;20218;-86
2023/02/03 14:07:02;;;;;;;2.20;1.10;;;7.40;58.10;;;;;;5019029;28;20201;-84
2023/02/03 14:09:47;;;;;;;1.53;1.20;;;7.40;58.00;;;;;;5007628;28;20286;-83
2023/02/03 14:12:42;;;;;;;2.97;1.17;;;7.40;58.10;;;;;;5013395;28;20661;-85